Time;durP1;ratioP1;P1;durP2;ratioP2;P2;SDS_P1;SDS_P2;PMS_P1;PMS_P2;Temp;Humidity;BMP_temperature;BMP_pressure;BME280_temperature;BME280_humidity;BME280_pressure;Samples;Min_cycle;Max_cycle;Signal;HPM_P1;HPM_P2
2022/12/23 00:01:43;;;;;;;1.93;1.40;;;10.00;98.00;;;;;;5042865;28;20957;-70
2022/12/23 00:04:13;;;;;;;2.10;1.20;;;9.90;98.00;;;;;;5042743;28;20528;-70
2022/12/23 00:06:40;;;;;;;1.60;1.20;;;9.90;98.00;;;;;;5042800;28;20547;-70
2022/12/23 00:09:07;;;;;;;2.37;1.80;;;9.80;98.00;;;;;;5011326;28;20459;-70
2022/12/23 00:11:36;;;;;;;2.50;1.10;;;9.80;98.00;;;;;;5011050;28;20463;-70
2022/12/23 00:16:51;;;;;;;1.20;1.10;;;10.00;98.00;;;;;;5011233;28;20488;-70
2022/12/23 00:19:18;;;;;;;1.50;1.20;;;10.00;98.00;;;;;;5010938;28;20461;-69
2022/12/23 00:21:45;;;;;;;3.20;1.70;;;10.20;98.00;;;;;;5013886;28;20455;-69
2022/12/23 00:24:14;;;;;;;1.50;1.20;;;10.20;98.00;;;;;;5014701;28;20483;-70
2022/12/23 00:26:43;;;;;;;1.97;1.10;;;10.20;98.00;;;;;;5014379;28;20474;-70
2022/12/23 00:29:12;;;;;;;1.57;1.40;;;10.20;98.00;;;;;;5014435;28;21042;-70
2022/12/23 00:31:48;;;;;;;1.20;1.07;;;10.20;98.00;;;;;;5014933;28;20462;-71
2022/12/23 00:34:16;;;;;;;1.20;1.20;;;10.30;98.00;;;;;;5014836;28;20580;-71
2022/12/23 00:36:46;;;;;;;1.20;1.20;;;10.30;98.00;;;;;;5014592;28;20488;-70
2022/12/23 00:44:49;;;;;;;1.53;1.10;;;10.40;98.00;;;;;;5014485;28;20454;-70
2022/12/23 00:49:57;;;;;;;1.17;1.00;;;10.60;98.00;;;;;;5014147;28;20461;-70
2022/12/23 00:52:24;;;;;;;2.33;1.10;;;10.60;98.00;;;;;;5014463;28;20459;-69
2022/12/23 00:54:51;;;;;;;1.20;1.00;;;10.60;98.00;;;;;;5014198;28;20518;-69
2022/12/23 00:57:21;;;;;;;1.50;1.00;;;10.50;98.00;;;;;;5013964;28;20536;-69
2022/12/23 00:59:48;;;;;;;1.10;1.00;;;10.60;98.00;;;;;;5045264;28;20459;-69
2022/12/23 01:08:03;;;;;;;3.50;1.20;;;10.70;98.00;;;;;;5014054;28;20463;-69
2022/12/23 01:10:38;;;;;;;1.10;1.00;;;10.70;98.00;;;;;;5014278;28;20464;-69
2022/12/23 01:13:11;;;;;;;1.33;1.10;;;10.70;98.00;;;;;;5014215;28;20469;-70
2022/12/23 01:15:38;;;;;;;1.10;1.00;;;10.70;98.00;;;;;;5014090;28;20992;-70
2022/12/23 01:18:06;;;;;;;1.10;0.90;;;10.80;98.00;;;;;;5014086;28;20498;-70
2022/12/23 01:20:34;;;;;;;1.10;0.90;;;10.80;98.00;;;;;;5014063;28;20454;-70
2022/12/23 01:23:01;;;;;;;1.30;1.00;;;10.90;98.00;;;;;;5013661;28;20891;-70
2022/12/23 01:25:32;;;;;;;1.40;0.97;;;10.90;98.00;;;;;;5013531;28;20517;-69
2022/12/23 01:28:00;;;;;;;1.97;1.43;;;11.00;98.00;;;;;;5044523;28;21098;-70
2022/12/23 01:30:28;;;;;;;1.23;1.10;;;11.00;98.00;;;;;;5013854;28;20444;-70
2022/12/23 01:32:56;;;;;;;1.10;1.00;;;11.00;98.00;;;;;;5013593;28;20464;-71
2022/12/23 01:35:23;;;;;;;1.73;1.10;;;11.00;98.00;;;;;;5013734;28;20465;-70
2022/12/23 01:37:50;;;;;;;1.10;1.00;;;11.00;98.00;;;;;;5013108;28;20489;-69
2022/12/23 01:40:18;;;;;;;1.10;1.00;;;11.10;98.00;;;;;;5013386;28;20463;-71
2022/12/23 01:42:45;;;;;;;1.30;1.20;;;11.10;98.00;;;;;;5013860;28;20478;-70
2022/12/23 01:45:18;;;;;;;1.10;0.90;;;11.10;98.00;;;;;;5013351;28;20899;-70
2022/12/23 01:47:50;;;;;;;1.10;1.10;;;11.10;98.00;;;;;;5013639;28;20467;-70
2022/12/23 01:50:22;;;;;;;1.47;1.03;;;11.10;98.00;;;;;;5013463;28;20517;-70
2022/12/23 01:52:56;;;;;;;1.20;1.00;;;11.10;98.00;;;;;;5013691;28;20945;-70
2022/12/23 01:55:27;;;;;;;1.20;1.00;;;11.20;98.00;;;;;;5013389;28;20470;-70
2022/12/23 01:57:59;;;;;;;1.30;0.93;;;11.30;98.00;;;;;;5013326;28;20489;-70
2022/12/23 02:09:15;;;;;;;1.30;0.90;;;11.40;98.00;;;;;;5012992;28;20471;-70
2022/12/23 02:11:53;;;;;;;1.10;1.00;;;11.40;98.00;;;;;;5012313;28;20452;-68
2022/12/23 02:17:25;;;;;;;1.10;0.90;;;11.40;98.00;;;;;;5012473;28;20542;-68
2022/12/23 02:20:29;;;;;;;1.70;1.20;;;11.40;98.00;;;;;;5012441;28;20459;-68
2022/12/23 02:23:23;;;;;;;1.20;0.97;;;11.40;98.00;;;;;;5012068;28;20469;-68
2022/12/23 02:26:12;;;;;;;2.70;1.10;;;11.40;98.00;;;;;;5011949;28;20951;-68
2022/12/23 02:29:09;;;;;;;1.43;1.10;;;11.50;98.00;;;;;;5011033;28;20972;-68
2022/12/23 02:31:46;;;;;;;1.10;1.00;;;11.50;98.00;;;;;;5011007;28;20473;-68
2022/12/23 02:34:16;;;;;;;1.20;1.10;;;11.60;98.00;;;;;;5012095;28;20467;-68
2022/12/23 02:36:51;;;;;;;1.20;1.17;;;11.60;98.00;;;;;;5011913;28;20947;-68
2022/12/23 02:39:26;;;;;;;1.20;1.03;;;11.60;98.00;;;;;;5042931;28;20457;-68
2022/12/23 02:41:57;;;;;;;1.20;1.10;;;11.60;98.00;;;;;;5012277;28;20499;-68
2022/12/23 02:44:33;;;;;;;1.63;1.00;;;11.60;98.00;;;;;;5011730;28;20471;-68
2022/12/23 02:47:07;;;;;;;1.10;1.10;;;11.60;98.00;;;;;;5012058;28;20448;-68
2022/12/23 02:49:40;;;;;;;1.10;1.00;;;11.60;98.00;;;;;;5011832;28;20974;-68
2022/12/23 02:52:12;;;;;;;1.50;1.10;;;11.60;98.00;;;;;;5011808;28;20456;-68
2022/12/23 02:54:44;;;;;;;1.20;1.10;;;11.70;98.00;;;;;;5011764;28;20527;-68
2022/12/23 02:57:13;;;;;;;1.20;1.13;;;11.70;98.00;;;;;;5011779;28;20484;-68
2022/12/23 02:59:44;;;;;;;1.60;1.20;;;11.70;98.00;;;;;;5011568;28;20471;-68
2022/12/23 03:02:12;;;;;;;1.10;1.00;;;11.70;98.00;;;;;;5011625;28;20456;-68
2022/12/23 03:04:41;;;;;;;1.23;1.10;;;11.70;98.00;;;;;;5011685;28;20460;-68
2022/12/23 03:07:15;;;;;;;1.10;1.10;;;11.70;98.00;;;;;;5011620;28;20960;-68
2022/12/23 03:09:50;;;;;;;1.10;1.00;;;11.70;98.00;;;;;;5011196;28;20507;-68
2022/12/23 03:12:29;;;;;;;1.10;1.00;;;11.70;98.00;;;;;;5011624;28;20466;-68
2022/12/23 03:15:12;;;;;;;1.10;0.90;;;11.80;98.00;;;;;;5010935;28;20464;-68
2022/12/23 03:17:57;;;;;;;1.10;1.00;;;11.80;98.00;;;;;;5040989;28;20484;-68
2022/12/23 03:20:31;;;;;;;1.10;1.00;;;11.80;98.00;;;;;;5011788;28;20459;-68
2022/12/23 03:23:07;;;;;;;1.10;1.00;;;11.70;98.00;;;;;;5011763;28;20466;-68
2022/12/23 03:25:40;;;;;;;1.10;1.00;;;11.70;98.00;;;;;;5011288;28;20465;-68
2022/12/23 03:28:12;;;;;;;1.10;1.00;;;11.80;98.00;;;;;;5043123;28;20456;-68
2022/12/23 03:30:43;;;;;;;1.83;1.00;;;11.80;98.00;;;;;;5011254;28;20473;-68
2022/12/23 03:33:16;;;;;;;1.10;1.00;;;11.80;98.00;;;;;;5011430;28;20465;-68
2022/12/23 03:35:49;;;;;;;1.10;0.90;;;11.90;98.00;;;;;;5011516;28;20464;-68
2022/12/23 03:38:19;;;;;;;1.10;1.00;;;11.80;98.00;;;;;;5011317;28;20490;-68
2022/12/23 03:40:51;;;;;;;1.70;1.20;;;11.80;98.00;;;;;;5011210;28;20467;-68
2022/12/23 03:43:23;;;;;;;1.10;1.00;;;11.80;98.00;;;;;;5042132;28;20469;-68
2022/12/23 03:45:56;;;;;;;1.10;1.00;;;11.70;98.00;;;;;;5011183;28;20456;-68
2022/12/23 03:48:30;;;;;;;1.30;0.97;;;11.70;98.00;;;;;;5011411;28;20869;-68
2022/12/23 03:51:01;;;;;;;1.10;0.90;;;11.70;98.00;;;;;;5011270;28;20465;-68
2022/12/23 03:53:31;;;;;;;1.20;1.10;;;11.70;98.00;;;;;;5011101;28;20516;-68
2022/12/23 03:56:02;;;;;;;1.10;1.10;;;11.70;98.00;;;;;;5012985;28;20459;-68
2022/12/23 03:58:37;;;;;;;2.23;1.20;;;11.70;98.00;;;;;;5014849;28;20570;-68
2022/12/23 04:01:12;;;;;;;1.77;1.37;;;11.70;98.00;;;;;;5014825;28;20504;-68
2022/12/23 04:03:50;;;;;;;1.10;1.00;;;11.70;98.00;;;;;;5014829;28;20455;-68
2022/12/23 04:06:19;;;;;;;1.27;0.97;;;11.70;98.00;;;;;;5014671;28;20467;-68
2022/12/23 04:08:48;;;;;;;1.10;0.93;;;11.60;98.00;;;;;;5014726;28;20947;-68
2022/12/23 04:11:15;;;;;;;1.10;0.90;;;11.70;98.00;;;;;;5045599;28;20492;-68
2022/12/23 04:13:42;;;;;;;1.10;1.00;;;11.70;98.00;;;;;;5013400;28;20454;-68
2022/12/23 04:16:12;;;;;;;1.40;1.00;;;11.70;98.00;;;;;;5014638;28;20454;-68
2022/12/23 04:18:39;;;;;;;1.10;1.00;;;11.80;98.00;;;;;;5045910;28;20486;-68
2022/12/23 04:21:08;;;;;;;1.10;1.00;;;11.70;98.00;;;;;;5014518;28;20470;-68
2022/12/23 04:23:36;;;;;;;1.10;0.90;;;11.80;98.00;;;;;;5014605;28;20472;-68
2022/12/23 04:26:03;;;;;;;1.10;1.00;;;11.80;98.00;;;;;;5014617;28;20479;-68
2022/12/23 04:28:30;;;;;;;1.10;1.00;;;11.80;98.00;;;;;;5029681;28;20524;-68
2022/12/23 04:30:57;;;;;;;1.47;1.30;;;11.80;98.00;;;;;;5014495;28;20460;-68
2022/12/23 04:33:24;;;;;;;1.10;1.00;;;11.70;98.00;;;;;;5014352;28;20458;-68
2022/12/23 04:35:51;;;;;;;1.10;1.00;;;11.70;98.00;;;;;;5014144;28;20460;-68
2022/12/23 04:38:20;;;;;;;1.10;0.90;;;11.80;98.00;;;;;;5014186;28;20488;-68
2022/12/23 04:40:47;;;;;;;1.10;1.00;;;11.70;98.00;;;;;;5013839;28;20469;-68
2022/12/23 04:43:15;;;;;;;1.10;1.00;;;11.70;98.00;;;;;;5014231;28;20462;-68
2022/12/23 04:45:42;;;;;;;1.20;1.10;;;11.70;98.00;;;;;;5013852;28;20451;-68
2022/12/23 04:48:18;;;;;;;1.10;1.00;;;11.70;98.00;;;;;;5014147;28;20871;-68
2022/12/23 04:50:45;;;;;;;1.10;1.00;;;11.80;98.00;;;;;;5013941;28;20499;-68
2022/12/23 04:53:12;;;;;;;1.10;1.10;;;11.80;98.00;;;;;;5014014;28;20461;-68
2022/12/23 04:55:40;;;;;;;1.10;1.00;;;11.90;98.00;;;;;;5013853;28;20457;-68
2022/12/23 04:58:08;;;;;;;1.10;1.10;;;11.90;98.00;;;;;;5012462;28;20476;-68
2022/12/23 05:00:35;;;;;;;1.10;0.97;;;11.90;98.00;;;;;;5013771;28;20473;-68
2022/12/23 05:03:02;;;;;;;1.10;1.00;;;11.90;98.00;;;;;;5013811;28;20535;-68
2022/12/23 05:05:30;;;;;;;1.10;1.10;;;11.90;98.00;;;;;;5013538;28;20519;-68
2022/12/23 05:08:03;;;;;;;1.20;1.07;;;11.90;98.00;;;;;;5013445;28;20659;-68
2022/12/23 05:10:31;;;;;;;1.30;1.00;;;11.90;98.00;;;;;;5013613;28;20483;-68
2022/12/23 05:13:00;;;;;;;1.10;1.00;;;12.00;98.00;;;;;;5013477;28;20463;-68
2022/12/23 05:15:27;;;;;;;1.20;1.10;;;12.00;98.00;;;;;;5013385;28;20959;-68
2022/12/23 05:17:53;;;;;;;1.10;0.90;;;12.00;98.00;;;;;;5013305;28;20479;-68
2022/12/23 05:20:20;;;;;;;1.10;1.10;;;12.00;98.00;;;;;;5013512;28;20456;-68
2022/12/23 05:22:47;;;;;;;1.50;1.10;;;12.00;98.00;;;;;;5013625;28;20458;-68
2022/12/23 05:25:15;;;;;;;1.17;1.03;;;12.00;98.00;;;;;;5013328;28;20462;-68
2022/12/23 05:27:43;;;;;;;1.10;1.03;;;12.00;98.00;;;;;;5013290;28;20469;-68
2022/12/23 05:30:14;;;;;;;1.10;0.90;;;12.00;98.00;;;;;;5011946;28;20546;-68
2022/12/23 05:32:41;;;;;;;1.13;1.00;;;12.00;98.00;;;;;;5013210;28;20462;-68
2022/12/23 05:35:09;;;;;;;1.10;0.90;;;11.90;98.00;;;;;;5013170;28;20465;-68
2022/12/23 05:37:36;;;;;;;1.10;1.03;;;11.90;98.00;;;;;;5011904;28;20455;-68
2022/12/23 05:40:04;;;;;;;1.50;1.17;;;12.00;98.00;;;;;;5013502;28;20468;-68
2022/12/23 05:42:31;;;;;;;1.10;1.00;;;12.00;98.00;;;;;;5013032;28;20511;-68
2022/12/23 05:44:58;;;;;;;1.50;1.40;;;12.00;98.00;;;;;;5012816;28;20460;-68
2022/12/23 05:47:26;;;;;;;1.20;1.00;;;12.00;98.00;;;;;;5011921;28;20466;-68
2022/12/23 05:49:53;;;;;;;1.50;1.13;;;12.10;98.00;;;;;;5012823;28;20519;-68
2022/12/23 05:52:20;;;;;;;1.10;1.00;;;12.20;98.00;;;;;;5012890;28;20942;-68
2022/12/23 05:54:47;;;;;;;2.70;1.77;;;12.20;98.00;;;;;;5012642;28;20454;-68
2022/12/23 05:57:14;;;;;;;1.17;1.10;;;12.20;98.00;;;;;;5012815;28;20830;-68
2022/12/23 05:59:42;;;;;;;2.03;1.10;;;12.20;98.00;;;;;;5012576;28;20487;-68
2022/12/23 06:02:09;;;;;;;1.33;1.20;;;12.20;98.00;;;;;;5012885;28;20468;-68
2022/12/23 06:04:38;;;;;;;1.10;1.10;;;12.20;98.00;;;;;;5012524;28;20469;-68
2022/12/23 06:07:05;;;;;;;1.20;1.03;;;12.20;98.00;;;;;;5012550;28;20465;-68
2022/12/23 06:09:32;;;;;;;4.90;1.30;;;12.10;98.00;;;;;;5012531;28;20541;-68
2022/12/23 06:11:59;;;;;;;3.20;1.13;;;12.10;98.00;;;;;;5012380;28;20466;-68
2022/12/23 06:14:27;;;;;;;1.20;1.10;;;12.10;98.00;;;;;;5012783;28;20867;-68
2022/12/23 06:16:54;;;;;;;1.17;1.00;;;12.00;98.00;;;;;;5011219;28;20508;-68
2022/12/23 06:19:21;;;;;;;1.10;0.97;;;12.00;98.00;;;;;;5011726;28;20890;-68
2022/12/23 06:21:50;;;;;;;1.30;1.10;;;12.00;98.00;;;;;;5011088;28;20454;-68
2022/12/23 06:24:20;;;;;;;1.10;1.00;;;11.90;98.00;;;;;;5012206;28;20488;-68
2022/12/23 06:26:47;;;;;;;1.40;1.17;;;11.80;98.00;;;;;;5012241;28;20470;-68
2022/12/23 06:29:14;;;;;;;1.20;1.00;;;11.80;98.00;;;;;;5012374;28;20466;-68
2022/12/23 06:31:41;;;;;;;1.17;1.00;;;11.80;98.00;;;;;;5012088;28;20466;-68
2022/12/23 06:34:08;;;;;;;1.20;1.10;;;11.70;98.00;;;;;;5012113;28;20454;-68
2022/12/23 06:36:35;;;;;;;1.10;1.10;;;11.80;98.00;;;;;;5011893;28;20448;-68
2022/12/23 06:39:04;;;;;;;1.33;1.20;;;11.90;98.00;;;;;;5011775;28;20484;-68
2022/12/23 06:41:31;;;;;;;1.13;1.13;;;11.80;98.00;;;;;;5012049;28;20940;-68
2022/12/23 06:43:58;;;;;;;1.10;0.93;;;11.80;98.00;;;;;;5012126;28;20456;-68
2022/12/23 06:46:25;;;;;;;1.20;1.10;;;11.70;98.00;;;;;;5011947;28;20530;-68
2022/12/23 06:48:52;;;;;;;1.30;1.20;;;11.70;98.00;;;;;;5011831;28;20902;-68
2022/12/23 06:51:20;;;;;;;1.20;1.10;;;11.70;98.00;;;;;;5011951;28;20458;-68
2022/12/23 06:53:47;;;;;;;1.23;1.10;;;11.70;98.00;;;;;;5011905;28;20457;-68
2022/12/23 06:56:15;;;;;;;1.30;1.07;;;11.80;98.00;;;;;;5011723;28;20454;-68
2022/12/23 06:58:42;;;;;;;1.43;1.27;;;11.70;98.00;;;;;;5011770;28;20482;-68
2022/12/23 07:01:10;;;;;;;1.10;1.10;;;11.70;98.00;;;;;;5011935;28;20858;-68
2022/12/23 07:03:37;;;;;;;1.60;1.10;;;11.70;98.00;;;;;;5011804;28;20465;-71
2022/12/23 07:06:05;;;;;;;1.30;1.10;;;11.70;98.00;;;;;;5011714;28;20464;-71
2022/12/23 07:08:32;;;;;;;1.20;1.10;;;11.70;98.00;;;;;;5012049;28;20453;-71
2022/12/23 07:11:00;;;;;;;1.30;1.10;;;11.70;98.00;;;;;;5010717;28;20452;-71
2022/12/23 07:13:28;;;;;;;1.20;1.10;;;11.70;98.00;;;;;;5011846;28;20461;-72
2022/12/23 07:15:56;;;;;;;1.40;1.30;;;11.70;98.00;;;;;;5011603;28;20484;-67
2022/12/23 07:18:24;;;;;;;1.30;1.03;;;11.70;98.00;;;;;;5011503;28;20477;-72
2022/12/23 07:20:51;;;;;;;1.17;1.10;;;11.70;98.00;;;;;;5011383;28;20471;-72
2022/12/23 07:23:19;;;;;;;1.37;1.07;;;11.70;98.00;;;;;;5011631;28;20458;-72
2022/12/23 07:25:47;;;;;;;1.60;1.30;;;11.70;98.00;;;;;;5011257;28;20462;-73
2022/12/23 07:28:14;;;;;;;1.10;1.00;;;11.60;98.00;;;;;;5011496;28;20468;-72
2022/12/23 07:30:42;;;;;;;1.40;1.27;;;11.60;98.00;;;;;;5014635;28;20460;-72
2022/12/23 07:33:09;;;;;;;1.30;1.10;;;11.50;98.00;;;;;;5015411;28;20466;-72
2022/12/23 07:35:36;;;;;;;1.30;1.20;;;11.50;98.00;;;;;;5015009;28;20465;-72
2022/12/23 07:38:04;;;;;;;1.30;1.20;;;11.50;98.00;;;;;;5015200;28;20465;-72
2022/12/23 07:40:31;;;;;;;1.10;1.00;;;11.50;98.00;;;;;;5015043;28;20496;-72
2022/12/23 07:42:59;;;;;;;1.17;1.00;;;11.50;98.00;;;;;;5015169;28;20553;-73
2022/12/23 07:45:27;;;;;;;1.23;1.20;;;11.60;98.00;;;;;;5015398;28;20470;-71
2022/12/23 07:47:56;;;;;;;2.30;1.20;;;11.60;98.00;;;;;;5015121;28;20464;-72
2022/12/23 07:50:24;;;;;;;1.43;1.20;;;11.60;98.00;;;;;;5015089;28;20459;-73
2022/12/23 07:52:52;;;;;;;1.40;1.40;;;11.60;98.00;;;;;;5015190;28;20465;-72
2022/12/23 07:55:19;;;;;;;2.23;1.60;;;11.60;98.00;;;;;;5015305;28;20537;-72
2022/12/23 07:57:48;;;;;;;1.20;1.10;;;11.60;98.00;;;;;;5015066;28;20462;-73
2022/12/23 08:00:18;;;;;;;1.30;1.20;;;11.60;98.00;;;;;;5014827;28;20498;-74
2022/12/23 08:02:46;;;;;;;1.53;1.10;;;11.50;98.00;;;;;;5015015;28;20465;-74
2022/12/23 08:05:15;;;;;;;1.30;1.10;;;11.50;98.00;;;;;;5015075;28;20462;-73
2022/12/23 08:07:44;;;;;;;1.30;1.20;;;11.50;98.00;;;;;;5014888;28;20465;-74
2022/12/23 08:10:12;;;;;;;1.20;1.10;;;11.50;98.00;;;;;;5014387;28;20556;-73
2022/12/23 08:12:39;;;;;;;1.20;1.20;;;11.60;98.00;;;;;;5014355;28;20469;-72
2022/12/23 08:15:08;;;;;;;1.20;1.10;;;11.70;98.00;;;;;;5014815;28;20467;-73
2022/12/23 08:17:35;;;;;;;2.60;1.50;;;11.70;98.00;;;;;;5014725;28;20449;-72
2022/12/23 08:20:02;;;;;;;2.03;1.50;;;11.80;98.00;;;;;;5013211;28;20869;-71
2022/12/23 08:22:34;;;;;;;2.23;1.70;;;11.80;98.00;;;;;;5014616;28;20465;-75
2022/12/23 08:25:01;;;;;;;2.80;2.10;;;11.90;98.00;;;;;;5013988;28;20986;-76
2022/12/23 08:27:28;;;;;;;3.90;2.30;;;11.90;98.00;;;;;;5014183;28;20966;-74
2022/12/23 08:29:55;;;;;;;8.50;2.00;;;11.80;98.00;;;;;;5014555;28;21029;-74
2022/12/23 08:32:25;;;;;;;2.03;1.40;;;11.80;98.00;;;;;;5013195;28;20490;-74
2022/12/23 08:34:53;;;;;;;2.40;1.87;;;11.70;98.00;;;;;;5014628;28;20458;-72
2022/12/23 08:37:20;;;;;;;2.97;2.10;;;11.70;98.00;;;;;;5014288;28;20457;-71
2022/12/23 08:39:50;;;;;;;2.20;1.70;;;11.70;98.00;;;;;;5014144;28;21029;-70
2022/12/23 08:42:17;;;;;;;3.17;1.90;;;11.70;98.00;;;;;;5013425;28;20615;-71
2022/12/23 08:44:45;;;;;;;2.07;1.53;;;11.70;98.00;;;;;;5014212;28;20591;-73
2022/12/23 08:47:12;;;;;;;3.93;2.00;;;11.70;98.00;;;;;;5013052;28;20467;-75
2022/12/23 08:49:39;;;;;;;1.67;1.60;;;11.90;98.00;;;;;;5014232;28;20473;-73
2022/12/23 08:52:06;;;;;;;2.70;1.50;;;12.00;98.00;;;;;;5018852;28;20457;-73
2022/12/23 08:54:33;;;;;;;1.50;1.20;;;12.00;98.00;;;;;;5020181;28;20478;-62
2022/12/23 08:57:02;;;;;;;1.17;1.00;;;12.30;98.00;;;;;;5030709;28;20465;-62
2022/12/23 08:59:29;;;;;;;1.37;1.20;;;12.60;98.00;;;;;;5021773;28;20536;-63
2022/12/23 09:01:58;;;;;;;1.77;1.40;;;12.70;98.00;;;;;;5013412;28;20463;-63
2022/12/23 09:04:25;;;;;;;1.20;1.10;;;12.80;98.00;;;;;;5029039;28;20465;-64
2022/12/23 09:06:52;;;;;;;1.10;1.00;;;12.90;98.00;;;;;;5019565;28;20454;-74
2022/12/23 09:09:20;;;;;;;1.20;1.00;;;12.90;98.00;;;;;;5035926;28;20794;-73
2022/12/23 09:11:47;;;;;;;1.20;1.17;;;12.90;98.00;;;;;;5029704;28;20931;-74
2022/12/23 09:14:15;;;;;;;1.30;1.20;;;12.80;98.00;;;;;;5020270;28;20978;-74
2022/12/23 09:16:42;;;;;;;1.20;1.10;;;12.70;98.00;;;;;;5019053;28;20971;-74
2022/12/23 09:19:09;;;;;;;1.20;1.00;;;12.60;98.00;;;;;;5022027;28;20485;-67
2022/12/23 09:21:37;;;;;;;1.63;1.10;;;12.50;98.00;;;;;;5009899;28;20452;-73
2022/12/23 09:24:05;;;;;;;1.10;1.00;;;12.50;98.00;;;;;;5020328;28;20474;-73
2022/12/23 09:26:32;;;;;;;1.10;1.00;;;12.50;98.00;;;;;;5012458;28;20476;-74
2022/12/23 09:28:59;;;;;;;1.20;1.10;;;12.50;98.00;;;;;;5018390;28;20856;-73
2022/12/23 09:31:28;;;;;;;1.20;1.10;;;12.60;98.00;;;;;;5029445;28;20457;-74
2022/12/23 09:33:55;;;;;;;1.30;1.10;;;12.60;98.00;;;;;;5012135;28;20462;-76
2022/12/23 09:36:23;;;;;;;1.97;1.43;;;12.70;98.00;;;;;;5010274;28;20457;-71
2022/12/23 09:38:54;;;;;;;1.30;1.30;;;12.60;98.00;;;;;;5021967;28;20457;-74
2022/12/23 09:41:33;;;;;;;3.20;1.33;;;12.50;98.00;;;;;;5013049;28;20553;-75
2022/12/23 09:44:15;;;;;;;2.13;1.50;;;12.50;98.00;;;;;;5012740;28;20463;-73
2022/12/23 09:46:48;;;;;;;2.20;1.60;;;12.50;98.00;;;;;;5028930;28;20473;-73
2022/12/23 09:49:17;;;;;;;3.77;1.80;;;12.40;98.00;;;;;;5011445;28;20492;-71
2022/12/23 09:51:54;;;;;;;2.03;1.40;;;12.40;98.00;;;;;;5021346;28;20876;-71
2022/12/23 09:54:24;;;;;;;2.83;1.83;;;12.40;98.00;;;;;;5009087;28;20475;-70
2022/12/23 09:56:54;;;;;;;2.27;1.87;;;12.40;98.00;;;;;;5024325;28;20804;-70
2022/12/23 09:59:35;;;;;;;2.77;1.83;;;12.40;98.00;;;;;;5014660;28;20492;-71
2022/12/23 10:02:18;;;;;;;3.87;1.77;;;12.40;98.00;;;;;;5016976;28;20469;-69
2022/12/23 10:04:54;;;;;;;1.40;1.40;;;12.40;98.00;;;;;;5029560;28;20470;-69
2022/12/23 10:07:33;;;;;;;2.80;2.10;;;12.50;98.00;;;;;;5008971;28;20462;-69
2022/12/23 10:10:07;;;;;;;3.00;2.00;;;12.60;98.00;;;;;;5018737;28;20828;-68
2022/12/23 10:12:38;;;;;;;3.70;1.90;;;12.80;98.00;;;;;;5019323;28;20460;-71
2022/12/23 10:15:22;;;;;;;2.23;1.80;;;12.80;98.00;;;;;;5028580;28;20479;-70
2022/12/23 10:17:54;;;;;;;2.97;2.10;;;12.80;98.00;;;;;;5021330;28;20463;-70
2022/12/23 10:20:30;;;;;;;2.80;1.87;;;12.80;98.00;;;;;;5025094;28;21071;-70
2022/12/23 10:22:59;;;;;;;2.30;2.00;;;12.80;98.00;;;;;;5011143;28;20464;-67
2022/12/23 10:25:35;;;;;;;2.03;1.70;;;12.70;98.00;;;;;;5009509;28;20458;-72
2022/12/23 10:28:02;;;;;;;2.07;1.73;;;12.60;98.00;;;;;;5015654;28;20462;-67
2022/12/23 10:30:39;;;;;;;2.63;1.70;;;12.60;98.00;;;;;;5029223;28;20457;-70
2022/12/23 10:33:18;;;;;;;2.27;1.70;;;12.70;98.00;;;;;;5014544;28;20490;-70
2022/12/23 10:35:56;;;;;;;3.40;2.10;;;12.60;98.00;;;;;;5018449;28;21129;-74
2022/12/23 10:38:41;;;;;;;4.07;2.23;;;12.60;98.00;;;;;;5029245;28;20866;-78
2022/12/23 10:41:18;;;;;;;3.70;2.20;;;12.50;98.00;;;;;;5029053;28;20504;-74
2022/12/23 10:44:02;;;;;;;12.57;3.50;;;12.50;98.00;;;;;;5014353;28;20522;-74
2022/12/23 10:46:44;;;;;;;4.40;2.40;;;12.60;98.00;;;;;;5020158;28;20461;-74
2022/12/23 10:49:21;;;;;;;3.90;2.60;;;12.70;98.00;;;;;;5007804;28;20472;-73
2022/12/23 10:51:52;;;;;;;5.90;3.10;;;12.60;98.00;;;;;;5021661;28;20461;-78
2022/12/23 10:54:26;;;;;;;3.03;2.20;;;12.60;98.00;;;;;;5019901;28;20478;-72
2022/12/23 10:56:55;;;;;;;4.97;2.50;;;12.60;98.00;;;;;;5020635;28;20467;-73
2022/12/23 10:59:26;;;;;;;8.43;3.07;;;12.60;98.00;;;;;;5018891;28;20516;-70
2022/12/23 11:02:01;;;;;;;3.40;2.10;;;12.50;98.00;;;;;;5019270;28;20950;-75
2022/12/23 11:04:34;;;;;;;4.70;2.37;;;12.50;98.00;;;;;;5018618;28;20519;-75
2022/12/23 11:07:02;;;;;;;2.77;2.03;;;12.50;98.00;;;;;;5020288;28;20463;-74
2022/12/23 11:09:37;;;;;;;5.80;2.80;;;12.50;98.00;;;;;;5021276;28;20539;-70
2022/12/23 11:12:07;;;;;;;3.37;2.43;;;12.50;98.00;;;;;;5024482;28;20585;-75
2022/12/23 11:14:54;;;;;;;3.77;2.27;;;12.50;98.00;;;;;;5148229;27;20553;-75
2022/12/23 11:17:23;;;;;;;4.00;2.50;;;12.50;98.00;;;;;;5127079;28;20465;-72
2022/12/23 11:20:07;;;;;;;5.40;2.53;;;12.50;98.00;;;;;;5127542;28;20803;-80
2022/12/23 11:22:36;;;;;;;5.60;3.87;;;12.50;98.00;;;;;;5127540;28;20458;-74
2022/12/23 11:25:26;;;;;;;4.40;2.50;;;12.50;98.00;;;;;;5127652;28;20528;-76
2022/12/23 11:27:56;;;;;;;6.00;2.70;;;12.40;98.00;;;;;;5127348;28;20798;-73
2022/12/23 11:30:25;;;;;;;2.83;2.30;;;12.40;98.00;;;;;;5118655;28;20457;-73
2022/12/23 11:32:52;;;;;;;7.27;2.50;;;12.40;98.00;;;;;;5126482;28;20831;-73
2022/12/23 11:35:27;;;;;;;3.20;1.93;;;12.40;98.00;;;;;;5125252;28;20897;-76
2022/12/23 11:37:56;;;;;;;2.50;2.20;;;12.40;98.00;;;;;;5118987;28;20450;-75
2022/12/23 11:40:26;;;;;;;5.50;2.70;;;12.40;98.00;;;;;;5126240;28;20442;-73
2022/12/23 11:42:57;;;;;;;4.27;2.40;;;12.60;98.00;;;;;;5126754;28;20969;-75
2022/12/23 11:45:28;;;;;;;4.60;2.40;;;12.60;98.00;;;;;;5125130;28;20495;-73
2022/12/23 11:47:56;;;;;;;2.90;2.00;;;12.50;98.00;;;;;;5126242;28;20460;-74
2022/12/23 11:50:33;;;;;;;2.97;1.83;;;12.50;98.00;;;;;;5121432;28;20544;-75
2022/12/23 11:53:12;;;;;;;1.40;1.20;;;12.60;98.00;;;;;;5124772;28;20484;-75
2022/12/23 11:55:48;;;;;;;3.87;1.60;;;12.60;98.00;;;;;;5126708;28;20450;-74
2022/12/23 11:58:21;;;;;;;1.53;1.50;;;12.50;98.00;;;;;;5127377;27;20471;-75
2022/12/23 12:00:58;;;;;;;2.57;1.57;;;12.60;98.00;;;;;;5126684;28;20462;-73
2022/12/23 12:03:31;;;;;;;7.53;2.70;;;12.70;98.00;;;;;;5125819;27;21012;-76
2022/12/23 12:06:00;;;;;;;2.80;1.90;;;12.80;98.00;;;;;;5126238;28;20857;-74
2022/12/23 12:08:31;;;;;;;3.10;2.00;;;12.70;98.00;;;;;;5125988;28;20457;-72
2022/12/23 12:11:06;;;;;;;6.83;2.73;;;12.70;98.00;;;;;;5126416;27;20470;-74
2022/12/23 12:13:38;;;;;;;3.73;2.40;;;12.70;98.00;;;;;;5125896;28;20606;-74
2022/12/23 12:16:22;;;;;;;4.97;2.90;;;12.60;98.00;;;;;;5117488;28;20481;-75
2022/12/23 12:18:53;;;;;;;2.13;1.90;;;12.60;98.00;;;;;;5126463;27;20487;-74
2022/12/23 12:21:24;;;;;;;3.90;1.90;;;12.60;98.00;;;;;;5126317;28;20457;-76
2022/12/23 12:23:54;;;;;;;2.30;1.77;;;12.60;98.00;;;;;;5130782;27;20453;-73
2022/12/23 12:26:27;;;;;;;1.57;1.50;;;12.60;98.00;;;;;;5123092;27;20470;-75
2022/12/23 12:29:00;;;;;;;1.67;1.50;;;12.60;98.00;;;;;;5116679;27;20454;-74
2022/12/23 12:31:34;;;;;;;1.50;1.20;;;12.60;98.00;;;;;;5114369;27;20447;-75
2022/12/23 12:34:23;;;;;;;1.73;1.43;;;12.60;98.00;;;;;;5117404;27;20979;-73
2022/12/23 12:36:55;;;;;;;1.40;1.30;;;12.60;98.00;;;;;;5115433;27;20463;-76
2022/12/23 12:39:27;;;;;;;1.50;1.40;;;12.70;98.00;;;;;;5118588;27;20458;-73
2022/12/23 12:42:00;;;;;;;2.50;1.40;;;12.70;98.00;;;;;;5115013;27;20448;-76
2022/12/23 12:44:35;;;;;;;1.30;1.20;;;12.60;98.00;;;;;;5111152;28;20462;-75
2022/12/23 12:47:10;;;;;;;2.00;1.43;;;12.70;98.00;;;;;;5112094;28;20454;-73
2022/12/23 12:49:43;;;;;;;1.50;1.37;;;12.70;98.00;;;;;;5109110;28;20477;-74
2022/12/23 12:52:13;;;;;;;1.47;1.20;;;12.70;98.00;;;;;;5109217;28;20826;-72
2022/12/23 12:54:45;;;;;;;1.40;1.23;;;12.70;98.00;;;;;;5110079;28;20501;-74
2022/12/23 12:57:16;;;;;;;1.40;1.20;;;12.70;98.00;;;;;;5111499;28;20467;-75
2022/12/23 12:59:44;;;;;;;1.70;1.40;;;12.70;98.00;;;;;;5111438;28;20926;-77
2022/12/23 13:02:46;;;;;;;1.50;1.30;;;12.80;98.00;;;;;;5093194;28;20459;-76
2022/12/23 13:05:29;;;;;;;1.40;1.30;;;12.80;98.00;;;;;;5111442;28;20475;-75
2022/12/23 13:08:11;;;;;;;1.40;1.20;;;12.70;98.00;;;;;;5111295;28;20459;-74
2022/12/23 13:10:43;;;;;;;1.40;1.30;;;12.80;98.00;;;;;;5094283;28;20458;-76
2022/12/23 13:13:26;;;;;;;2.33;1.27;;;12.90;98.00;;;;;;5110845;28;20469;-76
2022/12/23 13:16:00;;;;;;;1.47;1.20;;;12.80;98.00;;;;;;5110985;28;20466;-74
2022/12/23 13:18:38;;;;;;;1.83;1.30;;;12.90;98.00;;;;;;5111036;28;20508;-76
2022/12/23 13:21:12;;;;;;;2.67;1.27;;;12.80;98.00;;;;;;5109556;28;20453;-75
2022/12/23 13:23:45;;;;;;;1.30;1.10;;;12.80;98.00;;;;;;5111030;28;20444;-76
2022/12/23 13:26:19;;;;;;;5.33;1.63;;;12.90;98.00;;;;;;5111238;28;20457;-77
2022/12/23 13:28:55;;;;;;;1.50;1.30;;;12.90;98.00;;;;;;5110987;28;20458;-75
2022/12/23 13:31:33;;;;;;;2.50;1.43;;;13.00;98.00;;;;;;5110576;28;20872;-73
2022/12/23 13:34:28;;;;;;;1.33;1.33;;;13.00;98.00;;;;;;5103112;28;20487;-74
2022/12/23 13:37:03;;;;;;;1.57;1.30;;;13.10;98.00;;;;;;5109668;28;20473;-73